createdAt,value
2019-03-12T00:02:16.900Z,100425.64
2019-03-12T00:04:47.402Z,100423.33
2019-03-12T00:07:17.819Z,100424.95
2019-03-12T00:09:48.251Z,100422.68
2019-03-12T00:12:19.088Z,100426.81
2019-03-12T00:14:49.527Z,100426.23
2019-03-12T00:17:19.972Z,100432.53
2019-03-12T00:19:50.505Z,100432.99
2019-03-12T00:22:20.938Z,100433.80
2019-03-12T00:24:51.378Z,100431.09
2019-03-12T00:27:21.896Z,100436.87
2019-03-12T00:29:52.388Z,100435.98
2019-03-12T00:32:22.838Z,100441.11
2019-03-12T00:34:53.682Z,100440.52
2019-03-12T00:37:24.413Z,100441.42
2019-03-12T00:39:54.844Z,100443.92
2019-03-12T00:42:25.319Z,100452.50
2019-03-12T00:44:55.753Z,100447.39
2019-03-12T00:47:26.541Z,100447.62
2019-03-12T00:49:57.041Z,100436.39
2019-03-12T00:52:27.447Z,100441.22
2019-03-12T00:54:58.235Z,100446.81
2019-03-12T00:57:28.711Z,100448.24
2019-03-12T00:59:59.162Z,100446.97
2019-03-12T01:02:29.588Z,100440.95
2019-03-12T01:05:00.062Z,100443.87
2019-03-12T01:07:30.788Z,100446.81
2019-03-12T01:10:01.534Z,100452.48
2019-03-12T01:12:32.412Z,100447.84
2019-03-12T01:15:02.841Z,100452.91
2019-03-12T01:17:33.268Z,100449.34
2019-03-12T01:20:03.752Z,100452.91
2019-03-12T01:22:34.500Z,100453.75
2019-03-12T01:25:05.097Z,100443.16
2019-03-12T01:27:35.977Z,100441.95
2019-03-12T01:30:08.135Z,100443.00
2019-03-12T01:32:38.616Z,100445.48
2019-03-12T01:35:09.616Z,100450.83
2019-03-12T01:37:40.048Z,100449.86
2019-03-12T01:40:11.544Z,100445.81
2019-03-12T01:42:42.021Z,100453.53
2019-03-12T01:45:13.737Z,100450.78
2019-03-12T01:47:44.266Z,100448.89
2019-03-12T01:50:15.066Z,100451.27
2019-03-12T01:52:45.764Z,100451.88
2019-03-12T01:55:16.208Z,100458.09
2019-03-12T01:57:46.697Z,100448.78
2019-03-12T02:00:17.339Z,100446.78
2019-03-12T02:02:47.873Z,100448.13
2019-03-12T02:05:18.349Z,100452.08
2019-03-12T02:07:48.828Z,100446.86
2019-03-12T02:10:19.272Z,100451.88
2019-03-12T02:12:50.349Z,100454.19
2019-03-12T02:15:20.783Z,100450.11
2019-03-12T02:17:51.529Z,100444.84
2019-03-12T02:20:22.021Z,100447.86
2019-03-12T02:22:52.730Z,100442.20
2019-03-12T02:25:23.222Z,100439.12
2019-03-12T02:27:53.700Z,100434.16
2019-03-12T02:30:24.534Z,100430.62
2019-03-12T02:32:54.973Z,100428.27
2019-03-12T02:35:25.443Z,100430.45
2019-03-12T02:37:55.872Z,100426.16
2019-03-12T02:40:26.316Z,100428.38
2019-03-12T02:42:56.789Z,100432.45
2019-03-12T02:45:27.222Z,100433.99
2019-03-12T02:47:57.659Z,100430.16
2019-03-12T02:50:28.447Z,100431.75
2019-03-12T02:52:59.214Z,100432.63
2019-03-12T02:55:29.651Z,100433.28
2019-03-12T02:58:00.145Z,100432.80
2019-03-12T03:00:30.572Z,100435.20
2019-03-12T03:03:01.026Z,100433.50
2019-03-12T03:05:33.332Z,100428.53
2019-03-12T03:08:09.188Z,100432.99
2019-03-12T03:10:40.673Z,100430.08
2019-03-12T03:13:11.103Z,100430.84
2019-03-12T03:15:43.527Z,100432.99
2019-03-12T03:18:14.172Z,100432.07
2019-03-12T03:20:44.604Z,100425.78
2019-03-12T03:23:15.387Z,100431.69
2019-03-12T03:25:45.945Z,100430.05
2019-03-12T03:28:16.400Z,100422.87
2019-03-12T03:30:46.838Z,100422.59
2019-03-12T03:33:17.326Z,100425.43
2019-03-12T03:35:48.082Z,100427.29
2019-03-12T03:38:18.521Z,100419.41
2019-03-12T03:40:49.013Z,100419.87
2019-03-12T03:43:19.448Z,100426.02
2019-03-12T03:45:49.903Z,100421.85
2019-03-12T03:48:20.372Z,100415.91
2019-03-12T03:50:51.333Z,100415.80
2019-03-12T03:53:22.130Z,100419.16
2019-03-12T03:55:54.153Z,100425.10
2019-03-12T03:58:24.993Z,100423.90
2019-03-12T04:00:55.531Z,100420.97
2019-03-12T04:03:26.775Z,100429.63
2019-03-12T04:05:58.613Z,100431.20
2019-03-12T04:08:30.857Z,100434.47
2019-03-12T04:11:01.685Z,100431.87
2019-03-12T04:13:32.118Z,100435.94
2019-03-12T04:16:02.556Z,100436.53
2019-03-12T04:18:33.606Z,100436.88
2019-03-12T04:21:04.391Z,100439.45
2019-03-12T04:23:34.818Z,100435.38
2019-03-12T04:26:05.487Z,100438.13
2019-03-12T04:28:35.976Z,100430.31
2019-03-12T04:31:06.416Z,100429.06
2019-03-12T04:34:17.188Z,100419.47
2019-03-12T04:36:48.930Z,100419.19
2019-03-12T04:39:19.361Z,100419.30
2019-03-12T04:41:50.172Z,100421.83
2019-03-12T04:44:20.602Z,100421.45
2019-03-12T04:46:51.384Z,100420.89
2019-03-12T04:49:21.888Z,100420.64
2019-03-12T04:51:52.320Z,100425.19
2019-03-12T04:54:22.752Z,100422.92
2019-03-12T04:56:53.237Z,100417.46
2019-03-12T04:59:23.673Z,100419.27
2019-03-12T05:01:54.104Z,100417.72
2019-03-12T05:04:24.564Z,100418.38
2019-03-12T05:06:55.304Z,100417.55
2019-03-12T05:09:25.785Z,100417.09
2019-03-12T05:11:56.227Z,100417.64
2019-03-12T05:14:34.153Z,100418.20
2019-03-12T05:17:09.723Z,100416.51
2019-03-12T05:19:45.846Z,100407.73
2019-03-12T05:22:17.930Z,100414.84
2019-03-12T05:24:48.393Z,100411.25
2019-03-12T05:27:18.876Z,100412.47
2019-03-12T05:29:49.675Z,100417.46
2019-03-12T05:32:20.480Z,100415.77
2019-03-12T05:34:50.958Z,100412.20
2019-03-12T05:37:21.424Z,100407.18
2019-03-12T05:39:51.831Z,100408.98
2019-03-12T05:42:23.122Z,100403.54
2019-03-12T05:44:53.805Z,100401.45
2019-03-12T05:47:24.239Z,100396.00
2019-03-12T05:49:54.717Z,100390.23
2019-03-12T05:52:25.157Z,100391.47
2019-03-12T05:54:56.191Z,100386.75
2019-03-12T05:57:27.046Z,100388.34
2019-03-12T05:59:57.470Z,100394.66
2019-03-12T06:02:27.911Z,100393.91
2019-03-12T06:04:58.733Z,100390.70
2019-03-12T06:07:29.565Z,100390.44
2019-03-12T06:10:00.000Z,100390.62
2019-03-12T06:12:30.817Z,100390.62
2019-03-12T06:15:01.252Z,100381.69
2019-03-12T06:17:31.999Z,100379.05
2019-03-12T06:20:02.843Z,100375.90
2019-03-12T06:22:33.338Z,100372.59
2019-03-12T06:25:04.262Z,100377.14
2019-03-12T06:27:34.734Z,100378.25
2019-03-12T06:30:05.797Z,100374.30
2019-03-12T06:32:55.565Z,100376.44
2019-03-12T06:35:39.663Z,100373.20
2019-03-12T06:38:31.764Z,100378.77
2019-03-12T06:41:39.262Z,100368.41
2019-03-12T06:44:18.020Z,100374.25
2019-03-12T06:47:22.603Z,100358.37
2019-03-12T06:50:24.396Z,100356.55
2019-03-12T06:53:16.905Z,100355.51
2019-03-12T06:56:01.345Z,100367.61
2019-03-12T06:58:54.770Z,100367.39
2019-03-12T07:01:44.585Z,100360.30
2019-03-12T07:04:36.705Z,100364.22
2019-03-12T07:07:25.357Z,100359.13
2019-03-12T07:10:05.913Z,100358.86
2019-03-12T07:12:42.996Z,100350.93
2019-03-12T07:15:31.909Z,100348.89
2019-03-12T07:18:27.648Z,100340.69
2019-03-12T07:21:25.876Z,100338.27
2019-03-12T07:24:15.691Z,100335.52
2019-03-12T07:27:05.054Z,100333.09
2019-03-12T07:30:07.100Z,100331.16
2019-03-12T07:32:59.531Z,100311.33
2019-03-12T07:35:36.510Z,100304.09
2019-03-12T07:38:24.714Z,100304.84
2019-03-12T07:41:05.100Z,100301.60
2019-03-12T07:43:54.627Z,100298.02
2019-03-12T07:46:47.192Z,100296.47
2019-03-12T07:49:36.545Z,100296.39
2019-03-12T07:52:27.772Z,100293.20
2019-03-12T07:55:35.552Z,100294.86
2019-03-12T07:58:35.304Z,100289.30
2019-03-12T08:01:14.587Z,100281.25
2019-03-12T08:04:07.326Z,100266.77
2019-03-12T08:07:04.662Z,100256.67
2019-03-12T08:09:55.457Z,100252.10
2019-03-12T08:12:45.692Z,100252.54
2019-03-12T08:15:33.930Z,100242.12
2019-03-12T08:18:18.690Z,100240.83
2019-03-12T08:21:22.141Z,100227.16
2019-03-12T08:23:54.240Z,100225.34
2019-03-12T08:26:43.675Z,100211.55
2019-03-12T08:29:37.774Z,100220.13
2019-03-12T08:32:13.765Z,100215.09
2019-03-12T08:35:09.013Z,100207.28
2019-03-12T08:37:48.395Z,100203.20
2019-03-12T08:40:52.427Z,100193.23
2019-03-12T08:43:38.212Z,100199.44
2019-03-12T08:46:27.082Z,100195.63
2019-03-12T08:49:34.778Z,100186.61
2019-03-12T08:52:29.640Z,100185.57
2019-03-12T08:55:22.163Z,100176.29
2019-03-12T08:58:29.834Z,100172.32
2019-03-12T09:01:18.241Z,100161.47
2019-03-12T09:04:16.737Z,100154.97
2019-03-12T09:06:56.453Z,100160.16
2019-03-12T09:09:44.443Z,100140.89
2019-03-12T09:12:33.855Z,100126.19
2019-03-12T09:15:35.320Z,100133.16
2019-03-12T09:18:27.561Z,100117.36
2019-03-12T09:21:29.008Z,100122.92
2019-03-12T09:24:30.672Z,100114.45
2019-03-12T09:27:20.039Z,100107.78
2019-03-12T09:30:03.283Z,100098.90
2019-03-12T09:32:50.337Z,100095.94
2019-03-12T09:35:28.282Z,100092.20
2019-03-12T09:38:15.759Z,100078.05
2019-03-12T09:41:04.277Z,100076.37
2019-03-12T09:43:48.092Z,100064.78
2019-03-12T09:46:39.690Z,100052.23
2019-03-12T09:49:27.588Z,100054.48
2019-03-12T09:52:14.223Z,100051.17
2019-03-12T09:55:07.622Z,100039.50
2019-03-12T09:58:06.965Z,100026.63
2019-03-12T10:00:49.531Z,100026.08
2019-03-12T10:03:44.971Z,100023.17
2019-03-12T10:06:40.321Z,100019.44
2019-03-12T10:09:36.610Z,100018.96
2019-03-12T10:12:28.757Z,100009.81
2019-03-12T10:15:18.152Z,99998.36
2019-03-12T10:17:55.924Z,99992.55
2019-03-12T10:20:36.935Z,99973.98
2019-03-12T10:23:32.114Z,99981.10
2019-03-12T10:26:24.257Z,99977.48
2019-03-12T10:29:20.164Z,99972.77
2019-03-12T10:32:07.380Z,99966.94
2019-03-12T10:34:50.563Z,99957.91
2019-03-12T10:37:43.041Z,99954.75
2019-03-12T10:40:38.600Z,99960.05
2019-03-12T10:43:28.816Z,99950.69
2019-03-12T10:46:18.168Z,99948.02
2019-03-12T10:48:48.648Z,99934.78
2019-03-12T10:51:19.180Z,99937.66
2019-03-12T10:53:49.642Z,99928.65
2019-03-12T10:56:20.493Z,99924.59
2019-03-12T10:58:51.197Z,99914.03
2019-03-12T11:01:21.623Z,99925.02
2019-03-12T11:03:52.095Z,99913.89
2019-03-12T11:06:22.742Z,99901.38
2019-03-12T11:08:53.273Z,99901.59
2019-03-12T11:11:23.766Z,99888.18
2019-03-12T11:13:54.194Z,99890.05
2019-03-12T11:16:24.625Z,99885.99
2019-03-12T11:18:55.107Z,99887.45
2019-03-12T11:21:26.035Z,99877.51
2019-03-12T11:23:56.469Z,99867.44
2019-03-12T11:26:27.321Z,99851.91
2019-03-12T11:28:57.772Z,99851.30
2019-03-12T11:31:28.575Z,99844.48
2019-03-12T11:33:59.056Z,99832.95
2019-03-12T11:36:30.011Z,99827.92
2019-03-12T11:39:00.404Z,99826.30
2019-03-12T11:41:31.551Z,99821.07
2019-03-12T11:44:02.345Z,99820.89
2019-03-12T11:46:41.554Z,99813.97
2019-03-12T11:49:05.083Z,99810.48
2019-03-12T11:51:35.510Z,99799.05
2019-03-12T11:54:06.099Z,99801.67
2019-03-12T11:56:36.570Z,99799.45
2019-03-12T11:59:07.002Z,99791.94
2019-03-12T12:01:37.406Z,99795.06
2019-03-12T12:04:08.251Z,99774.59
2019-03-12T12:06:42.525Z,99775.84
2019-03-12T12:09:11.143Z,99773.64
2019-03-12T12:11:41.910Z,99769.57
2019-03-12T12:14:12.403Z,99762.98
2019-03-12T12:16:44.424Z,99756.33
2019-03-12T12:19:15.233Z,99749.11
2019-03-12T12:21:45.676Z,99743.03
2019-03-12T12:24:16.085Z,99725.53
2019-03-12T12:26:46.564Z,99716.78
2019-03-12T12:29:17.064Z,99698.56
2019-03-12T12:31:47.733Z,99693.39
2019-03-12T12:34:19.464Z,99684.34
2019-03-12T12:36:49.926Z,99682.90
2019-03-12T12:39:20.919Z,99670.47
2019-03-12T12:41:51.684Z,99670.17
2019-03-12T12:44:22.498Z,99665.02
2019-03-12T12:46:53.269Z,99654.84
2019-03-12T12:49:24.083Z,99646.04
2019-03-12T12:51:54.512Z,99635.25
2019-03-12T12:54:24.935Z,99625.59
2019-03-12T12:56:55.415Z,99621.90
2019-03-12T12:59:25.842Z,99611.80
2019-03-12T13:01:56.631Z,99599.86
2019-03-12T13:04:27.098Z,99587.89
2019-03-12T13:06:57.551Z,99582.56
2019-03-12T13:09:27.985Z,99572.23
2019-03-12T13:11:58.456Z,99571.38
2019-03-12T13:14:40.715Z,99559.55
2019-03-12T13:17:01.183Z,99568.04
2019-03-12T13:19:31.748Z,99558.41
2019-03-12T13:22:02.182Z,99554.50
2019-03-12T13:24:33.467Z,99541.31
2019-03-12T13:27:03.962Z,99528.32
2019-03-12T13:29:34.684Z,99528.87
2019-03-12T13:32:13.404Z,99531.29
2019-03-12T13:34:37.270Z,99518.22
2019-03-12T13:37:08.054Z,99516.27
2019-03-12T13:39:38.553Z,99510.67
2019-03-12T13:42:09.777Z,99505.55
2019-03-12T13:44:40.242Z,99495.09
2019-03-12T13:47:10.791Z,99483.98
2019-03-12T13:49:41.582Z,99477.20
2019-03-12T13:52:12.078Z,99462.64
2019-03-12T13:54:42.651Z,99459.53
2019-03-12T13:57:13.063Z,99456.52
2019-03-12T13:59:43.878Z,99464.69
2019-03-12T14:02:14.926Z,99444.39
2019-03-12T14:04:45.359Z,99422.59
2019-03-12T14:07:15.789Z,99431.23
2019-03-12T14:09:46.276Z,99417.36
2019-03-12T14:12:17.448Z,99402.03
2019-03-12T14:14:47.879Z,99417.30
2019-03-12T14:17:18.348Z,99387.77
2019-03-12T14:19:48.772Z,99388.14
2019-03-12T14:22:19.279Z,99385.64
2019-03-12T14:24:49.759Z,99372.15
2019-03-12T14:27:20.563Z,99369.54
2019-03-12T14:29:51.297Z,99355.55
2019-03-12T14:32:21.774Z,99356.02
2019-03-12T14:34:52.565Z,99351.73
2019-03-12T14:37:22.996Z,99344.98
2019-03-12T14:39:53.496Z,99322.36
2019-03-12T14:42:23.906Z,99322.38
2019-03-12T14:44:54.326Z,99324.73
2019-03-12T14:47:24.906Z,99303.70
2019-03-12T14:49:55.423Z,99287.39
2019-03-12T14:52:30.259Z,99288.41
2019-03-12T14:55:01.270Z,99267.07
2019-03-12T14:57:31.756Z,99243.47
2019-03-12T15:00:02.175Z,99214.88
2019-03-12T15:02:33.019Z,99217.23
2019-03-12T15:05:03.462Z,99199.78
2019-03-12T15:07:33.887Z,99205.62
2019-03-12T15:10:05.539Z,99184.94
2019-03-12T15:12:35.974Z,99188.41
2019-03-12T15:15:06.704Z,99173.91
2019-03-12T15:17:37.476Z,99163.63
2019-03-12T15:20:09.174Z,99149.00
2019-03-12T15:22:39.736Z,99144.48
2019-03-12T15:25:10.658Z,99125.57
2019-03-12T15:27:41.083Z,99094.29
2019-03-12T15:30:14.547Z,99115.05
2019-03-12T15:32:45.387Z,99095.09
2019-03-12T15:35:15.812Z,99092.77
2019-03-12T15:37:46.613Z,99082.76
2019-03-12T15:40:17.492Z,99061.81
2019-03-12T15:42:47.932Z,99071.81
2019-03-12T15:45:18.356Z,99052.17
2019-03-12T15:47:49.586Z,99039.20
2019-03-12T15:50:20.398Z,99040.87
2019-03-12T15:52:50.827Z,99037.88
2019-03-12T15:55:21.311Z,99026.60
2019-03-12T15:57:52.098Z,99019.44
2019-03-12T16:00:22.559Z,99010.30
2019-03-12T16:02:53.031Z,98998.62
2019-03-12T16:05:23.459Z,98999.47
2019-03-12T16:07:54.223Z,98991.00
2019-03-12T16:10:24.695Z,98985.69
2019-03-12T16:12:55.160Z,98990.34
2019-03-12T16:15:25.584Z,98968.72
2019-03-12T16:17:56.403Z,98956.07
2019-03-12T16:20:27.494Z,98945.30
2019-03-12T16:22:57.932Z,98949.11
2019-03-12T16:25:28.411Z,98935.31
2019-03-12T16:27:58.851Z,98927.67
2019-03-12T16:30:29.631Z,98928.31
2019-03-12T16:33:00.087Z,98909.05
2019-03-12T16:35:31.536Z,98899.06
2019-03-12T16:38:01.977Z,98896.23
2019-03-12T16:40:33.247Z,98895.59
2019-03-12T16:43:04.026Z,98906.05
2019-03-12T16:45:35.126Z,98905.88
2019-03-12T16:48:05.606Z,98895.24
2019-03-12T16:50:36.452Z,98888.94
2019-03-12T16:53:06.880Z,98876.97
2019-03-12T16:55:37.367Z,98886.76
2019-03-12T16:58:08.476Z,98866.17
2019-03-12T17:00:38.901Z,98851.85
2019-03-12T17:03:09.471Z,98849.53
2019-03-12T17:05:40.258Z,98835.08
2019-03-12T17:08:11.064Z,98827.45
2019-03-12T17:10:54.024Z,98812.80
2019-03-12T17:13:13.686Z,98799.50
2019-03-12T17:15:44.527Z,98799.84
2019-03-12T17:18:15.047Z,98781.75
2019-03-12T17:20:46.458Z,98786.55
2019-03-12T17:23:16.931Z,98755.81
2019-03-12T17:25:47.399Z,98763.30
2019-03-12T17:28:17.903Z,98760.65
2019-03-12T17:30:48.374Z,98766.78
2019-03-12T17:33:18.958Z,98724.77
2019-03-12T17:35:50.027Z,98721.59
2019-03-12T17:38:20.726Z,98732.40
2019-03-12T17:40:51.205Z,98717.44
2019-03-12T17:43:21.683Z,98693.02
2019-03-12T17:45:52.461Z,98701.33
2019-03-12T17:48:22.971Z,98693.35
2019-03-12T17:50:53.777Z,98691.04
2019-03-12T17:53:24.555Z,98684.05
2019-03-12T17:55:55.035Z,98677.75
2019-03-12T17:58:25.467Z,98673.94
2019-03-12T18:00:56.355Z,98685.89
2019-03-12T18:03:27.499Z,98671.45
2019-03-12T18:05:57.929Z,98650.01
2019-03-12T18:08:28.971Z,98645.33
2019-03-12T18:10:59.482Z,98640.88
2019-03-12T18:13:30.867Z,98628.90
2019-03-12T18:16:01.291Z,98619.45
2019-03-12T18:18:34.485Z,98610.45
2019-03-12T18:21:04.921Z,98612.96
2019-03-12T18:23:35.353Z,98619.59
2019-03-12T18:26:08.161Z,98597.48
2019-03-12T18:28:41.682Z,98578.23
2019-03-12T18:31:14.098Z,98580.73
2019-03-12T18:33:44.527Z,98580.73
2019-03-12T18:36:14.967Z,98579.56
2019-03-12T18:38:45.455Z,98573.09
2019-03-12T18:41:17.660Z,98577.06
2019-03-12T18:43:48.816Z,98558.94
2019-03-12T18:46:20.327Z,98543.84
2019-03-12T18:48:51.721Z,98560.60
2019-03-12T18:51:24.432Z,98550.98
2019-03-12T18:53:55.387Z,98537.53
2019-03-12T18:56:26.688Z,98546.31
2019-03-12T18:58:57.110Z,98530.37
2019-03-12T19:01:27.563Z,98526.36
2019-03-12T19:03:58.387Z,98512.58
2019-03-12T19:06:30.299Z,98504.26
2019-03-12T19:09:01.059Z,98499.25
2019-03-12T19:11:32.533Z,98499.45
2019-03-12T19:14:04.299Z,98500.60
2019-03-12T19:16:35.179Z,98492.98
2019-03-12T19:19:06.506Z,98497.14
2019-03-12T19:21:36.941Z,98488.66
2019-03-12T19:24:07.714Z,98482.84
2019-03-12T19:26:40.066Z,98484.19
2019-03-12T19:29:10.506Z,98459.77
2019-03-12T19:31:56.009Z,98457.45
2019-03-12T19:34:31.740Z,98452.13
2019-03-12T19:37:02.507Z,98448.14
2019-03-12T19:39:33.348Z,98441.66
2019-03-12T19:42:03.771Z,98428.03
2019-03-12T19:44:34.258Z,98427.83
2019-03-12T19:47:05.030Z,98414.53
2019-03-12T19:49:35.798Z,98421.41
2019-03-12T19:52:06.272Z,98409.06
2019-03-12T19:54:37.609Z,98402.06
2019-03-12T19:57:09.351Z,98398.13
2019-03-12T19:59:39.853Z,98400.00
2019-03-12T20:02:16.067Z,98368.23
2019-03-12T20:04:47.426Z,98382.48
2019-03-12T20:07:18.836Z,98378.65
2019-03-12T20:10:02.803Z,98368.53
2019-03-12T20:13:08.915Z,98377.66
2019-03-12T20:16:38.296Z,98383.12
2019-03-12T20:19:48.626Z,98365.50
2019-03-12T20:23:12.319Z,98356.80
2019-03-12T20:26:28.447Z,98356.09
2019-03-12T20:29:34.907Z,98348.19
2019-03-12T20:32:48.165Z,98340.84
2019-03-12T20:36:00.399Z,98333.69
2019-03-12T20:39:11.013Z,98322.94
2019-03-12T20:42:32.080Z,98320.88
2019-03-12T20:45:43.374Z,98320.12
2019-03-12T20:48:52.847Z,98312.71
2019-03-12T20:51:59.122Z,98317.73
2019-03-12T20:55:07.235Z,98294.05
2019-03-12T20:58:16.231Z,98295.44
2019-03-12T21:01:30.930Z,98289.65
2019-03-12T21:04:29.862Z,98282.77
2019-03-12T21:07:41.227Z,98285.37
2019-03-12T21:10:52.592Z,98257.88
2019-03-12T21:14:19.054Z,98267.57
2019-03-12T21:17:21.547Z,98242.95
2019-03-12T21:20:30.498Z,98242.43
2019-03-12T21:23:29.179Z,98218.48
2019-03-12T21:26:35.679Z,98217.63
2019-03-12T21:29:47.359Z,98220.66
2019-03-12T21:32:18.877Z,98230.02
2019-03-12T21:34:49.821Z,98222.66
2019-03-12T21:37:20.805Z,98204.80
2019-03-12T21:39:55.666Z,98216.10
2019-03-12T21:42:25.244Z,98209.13
2019-03-12T21:44:55.719Z,98194.29
2019-03-12T21:47:26.596Z,98205.91
2019-03-12T21:49:57.755Z,98181.15
2019-03-12T21:52:28.187Z,98177.70
2019-03-12T21:54:58.794Z,98189.89
2019-03-12T21:57:29.316Z,98181.09
2019-03-12T21:59:59.731Z,98171.70
2019-03-12T22:02:30.163Z,98175.20
2019-03-12T22:05:00.902Z,98167.65
2019-03-12T22:07:31.709Z,98172.97
2019-03-12T22:10:02.127Z,98159.39
2019-03-12T22:12:32.591Z,98159.80
2019-03-12T22:15:03.014Z,98148.31
2019-03-12T22:17:33.440Z,98153.44
2019-03-12T22:20:04.020Z,98146.77
2019-03-12T22:22:38.958Z,98146.44
2019-03-12T22:25:11.320Z,98163.68
2019-03-12T22:27:41.740Z,98153.48
2019-03-12T22:30:15.486Z,98150.56
2019-03-12T22:32:46.422Z,98167.16
2019-03-12T22:35:16.846Z,98153.83
2019-03-12T22:37:47.751Z,98152.94
2019-03-12T22:40:18.171Z,98158.85
2019-03-12T22:42:48.621Z,98147.88
2019-03-12T22:45:19.046Z,98144.14
2019-03-12T22:47:50.025Z,98143.05
2019-03-12T22:50:20.470Z,98140.87
2019-03-12T22:52:51.014Z,98139.14
2019-03-12T22:55:21.431Z,98140.34
2019-03-12T22:57:51.857Z,98137.95
2019-03-12T23:00:22.658Z,98134.31
2019-03-12T23:02:53.142Z,98127.39
2019-03-12T23:05:23.567Z,98128.94
2019-03-12T23:07:54.384Z,98126.27
2019-03-12T23:10:25.308Z,98109.95
2019-03-12T23:12:55.732Z,98112.29
2019-03-12T23:15:26.474Z,98098.04
2019-03-12T23:17:57.225Z,98104.58
2019-03-12T23:20:27.652Z,98105.03
2019-03-12T23:22:58.128Z,98093.55
2019-03-12T23:25:28.552Z,98103.78
2019-03-12T23:27:59.078Z,98097.94
2019-03-12T23:30:29.600Z,98102.52
2019-03-12T23:33:00.118Z,98101.13
2019-03-12T23:35:30.608Z,98131.74
2019-03-12T23:38:01.122Z,98107.72
2019-03-12T23:40:31.930Z,98107.10
2019-03-12T23:43:02.388Z,98115.28
2019-03-12T23:45:33.185Z,98096.64
2019-03-12T23:48:03.615Z,98107.42
2019-03-12T23:50:34.322Z,98104.56
2019-03-12T23:53:04.840Z,98122.14
2019-03-12T23:55:35.288Z,98132.72
2019-03-12T23:58:05.889Z,98136.25
